Aviation Digital Data Service (ADDS)

Output produced by METARs form (1058 UTC 19 January 2019)
found at http://www.aviationweather.gov/metar/data/
 
KEWR 191051Z 34007KT 10SM FEW045 SCT250 M01/M07 A3023 RMK AO2 SLP234 T10061072
KEWR 191000Z 1910/2012 28004KT P6SM FEW040 BKN250 
     FM191200 02006KT P6SM SCT120 BKN250 
     FM191500 05006KT P6SM SCT025 BKN120 
     FM192100 08009KT 6SM -SN BR SCT020 OVC035 
     FM192300 09011G20KT 1SM -SN BR OVC008 
     FM200300 07012G23KT 3/4SM FZRASNPL BR OVC009 
     FM200700 08011G23KT 2SM RA BR OVC009 
     FM201100 04008KT 2SM RA BR OVC009
       
KABE 191051Z 00000KT 9SM OVC041 00/M03 A3019 RMK AO2 SLP227 T00001028
KABE 190520Z 1906/2006 VRB04KT P6SM BKN050 
     FM191500 07005KT P6SM OVC200 
     FM191900 10007KT 3SM -SN OVC015 
     FM200300 07010KT 1SM -SNPL OVC008
       
KTTN 190520Z 1906/2006 VRB03KT P6SM BKN050 
     TEMPO 1906/1910 4SM BR 
     FM191300 05005KT P6SM OVC200 
     FM192100 10010KT 4SM -SN OVC015 
     FM200000 09011KT 2SM -SN OVC008
       
KMPO 191053Z AUTO 00000KT 10SM OVC026 M03/M07 A3012 RMK AO2 SLP222 T10331067
KAVP 191054Z 00000KT 10SM OVC035 M01/M07 A3017 RMK AO2 SLP223 T10111067
KAVP 190937Z 1910/2006 VRB03KT P6SM BKN035 
     FM191700 VRB04KT P6SM -SN OVC030 
     FM192000 11005KT 2SM -SN OVC025 
     FM192200 11006KT 1/2SM SN OVC015 
     FM200300 08008KT 1/4SM +SN OVC008